createdAt,value
2018-02-20T00:00:55.448Z,43.45
2018-02-20T00:03:25.183Z,41.17
2018-02-20T00:05:54.961Z,42.67
2018-02-20T00:08:24.835Z,46.60
2018-02-20T00:10:54.568Z,42.25
2018-02-20T00:13:24.430Z,42.55
2018-02-20T00:15:54.143Z,41.95
2018-02-20T00:18:23.869Z,42.65
2018-02-20T00:20:53.859Z,45.25
2018-02-20T00:23:23.629Z,40.33
2018-02-20T00:25:53.419Z,34.38
2018-02-20T00:28:24.046Z,45.15
2018-02-20T00:30:53.820Z,40.80
2018-02-20T00:33:23.597Z,45.22
2018-02-20T00:35:53.320Z,51.33
2018-02-20T00:38:23.843Z,41.47
2018-02-20T00:40:53.747Z,43.45
2018-02-20T00:43:23.538Z,38.72
2018-02-20T00:45:53.804Z,39.22
2018-02-20T00:48:23.766Z,39.72
2018-02-20T00:50:54.367Z,41.47
2018-02-20T00:53:24.287Z,36.70
2018-02-20T00:55:53.993Z,37.00
2018-02-20T00:58:23.811Z,45.55
2018-02-20T01:00:53.560Z,37.33
2018-02-20T01:03:23.432Z,37.42
2018-02-20T01:05:53.904Z,39.55
2018-02-20T01:08:23.673Z,39.20
2018-02-20T01:10:53.499Z,41.58
2018-02-20T01:13:23.193Z,38.33
2018-02-20T01:15:52.920Z,45.40
2018-02-20T01:18:22.730Z,38.15
2018-02-20T01:20:52.511Z,31.05
2018-02-20T01:23:23.224Z,41.40
2018-02-20T01:25:53.088Z,38.13
2018-02-20T01:28:22.813Z,33.95
2018-02-20T01:30:52.502Z,36.97
2018-02-20T01:33:22.351Z,37.00
2018-02-20T01:35:53.000Z,40.17
2018-02-20T01:38:22.762Z,37.53
2018-02-20T01:40:52.510Z,38.10
2018-02-20T01:43:22.367Z,37.63
2018-02-20T01:45:52.107Z,42.28
2018-02-20T01:48:21.796Z,38.70
2018-02-20T01:51:05.645Z,44.95
2018-02-20T01:53:35.372Z,45.33
2018-02-20T01:56:05.853Z,40.30
2018-02-20T01:58:35.573Z,43.10
2018-02-20T02:01:05.305Z,38.72
2018-02-20T02:03:35.077Z,46.50
2018-02-20T02:06:06.244Z,46.50
2018-02-20T02:08:37.479Z,48.08
2018-02-20T02:11:07.183Z,51.80
2018-02-20T02:13:36.884Z,42.38
2018-02-20T02:16:06.952Z,47.15
2018-02-20T02:18:36.752Z,41.92
2018-02-20T02:21:06.480Z,47.03
2018-02-20T02:23:36.187Z,43.13
2018-02-20T02:26:05.984Z,44.13
2018-02-20T02:28:35.803Z,45.03
2018-02-20T02:31:05.536Z,44.22
2018-02-20T02:33:35.245Z,40.53
2018-02-20T02:36:05.016Z,44.58
2018-02-20T02:38:34.861Z,43.60
2018-02-20T02:41:05.306Z,42.10
2018-02-20T02:43:35.804Z,41.60
2018-02-20T02:46:05.613Z,45.90
2018-02-20T02:48:35.364Z,48.70
2018-02-20T02:51:05.057Z,44.63
2018-02-20T02:53:34.743Z,46.70
2018-02-20T02:56:05.285Z,43.08
2018-02-20T02:58:35.244Z,38.20
2018-02-20T03:01:04.984Z,37.90
2018-02-20T03:03:34.778Z,39.28
2018-02-20T03:06:04.481Z,37.53
2018-02-20T03:08:34.188Z,37.30
2018-02-20T03:11:04.660Z,40.50
2018-02-20T03:13:34.506Z,39.78
2018-02-20T03:16:04.254Z,42.03
2018-02-20T03:18:33.932Z,47.40
2018-02-20T03:21:03.627Z,42.38
2018-02-20T03:23:33.324Z,42.13
2018-02-20T03:26:03.859Z,42.50
2018-02-20T03:28:34.088Z,45.15
2018-02-20T03:31:03.902Z,40.58
2018-02-20T03:33:33.622Z,41.72
2018-02-20T03:36:03.370Z,44.00
2018-02-20T03:38:33.964Z,43.17
2018-02-20T03:41:04.259Z,42.65
2018-02-20T03:43:34.877Z,39.95
2018-02-20T03:46:04.566Z,44.95
2018-02-20T03:48:34.257Z,43.78
2018-02-20T03:51:03.957Z,37.05
2018-02-20T03:53:34.544Z,37.28
2018-02-20T03:56:04.241Z,38.53
2018-02-20T03:58:33.940Z,42.72
2018-02-20T04:01:04.543Z,37.53
2018-02-20T04:03:34.221Z,38.33
2018-02-20T04:06:03.946Z,38.33
2018-02-20T04:08:33.740Z,40.50
2018-02-20T04:11:04.204Z,39.10
2018-02-20T04:13:33.943Z,41.10
2018-02-20T04:16:03.691Z,33.05
2018-02-20T04:18:33.495Z,37.65
2018-02-20T04:21:03.211Z,36.03
2018-02-20T04:23:32.938Z,38.63
2018-02-20T04:26:02.867Z,41.17
2018-02-20T04:28:32.621Z,38.83
2018-02-20T04:31:02.316Z,37.92
2018-02-20T04:33:32.271Z,38.17
2018-02-20T04:36:02.114Z,42.38
2018-02-20T04:38:32.612Z,42.22
2018-02-20T04:41:02.337Z,39.38
2018-02-20T04:43:32.072Z,40.38
2018-02-20T04:46:01.840Z,39.70
2018-02-20T04:48:31.625Z,39.13
2018-02-20T04:51:01.420Z,38.90
2018-02-20T04:53:31.129Z,33.00
2018-02-20T04:56:00.806Z,47.15
2018-02-20T04:58:31.440Z,41.42
2018-02-20T05:01:01.164Z,39.15
2018-02-20T05:03:30.852Z,42.72
2018-02-20T05:06:00.532Z,47.20
2018-02-20T05:08:30.278Z,45.42
2018-02-20T05:11:00.032Z,44.60
2018-02-20T05:13:29.750Z,50.95
2018-02-20T05:15:59.504Z,49.53
2018-02-20T05:18:30.057Z,44.75
2018-02-20T05:21:00.437Z,50.97
2018-02-20T05:23:30.204Z,51.75
2018-02-20T05:26:00.758Z,49.95
2018-02-20T05:28:30.492Z,52.83
2018-02-20T05:31:01.009Z,53.90
2018-02-20T05:33:31.586Z,50.45
2018-02-20T05:36:01.372Z,50.85
2018-02-20T05:38:37.911Z,52.75
2018-02-20T05:41:07.752Z,54.17
2018-02-20T05:43:38.019Z,51.50
2018-02-20T05:46:07.783Z,52.90
2018-02-20T05:48:37.639Z,57.10
2018-02-20T05:51:07.356Z,55.78
2018-02-20T05:53:37.040Z,54.88
2018-02-20T05:56:07.119Z,55.05
2018-02-20T05:58:37.685Z,55.53
2018-02-20T06:01:07.474Z,53.58
2018-02-20T06:03:37.988Z,49.00
2018-02-20T06:06:07.700Z,49.90
2018-02-20T06:08:37.511Z,54.92
2018-02-20T06:11:07.285Z,48.90
2018-02-20T06:13:37.049Z,62.28
2018-02-20T06:16:06.855Z,51.22
2018-02-20T06:18:37.314Z,51.42
2018-02-20T06:21:07.515Z,54.55
2018-02-20T06:23:38.072Z,62.95
2018-02-20T06:26:07.815Z,48.17
2018-02-20T06:28:37.595Z,53.42
2018-02-20T06:31:08.201Z,51.15
2018-02-20T06:33:37.918Z,54.80
2018-02-20T06:36:07.780Z,50.83
2018-02-20T06:38:38.335Z,44.05
2018-02-20T06:41:09.068Z,50.03
2018-02-20T06:43:38.884Z,53.35
2018-02-20T06:46:08.813Z,48.70
2018-02-20T06:48:39.494Z,58.55
2018-02-20T06:51:10.307Z,53.10
2018-02-20T06:53:40.868Z,58.45
2018-02-20T06:56:12.836Z,58.90
2018-02-20T06:58:43.881Z,46.85
2018-02-20T07:01:14.545Z,55.20
2018-02-20T07:03:45.176Z,53.40
2018-02-20T07:06:16.030Z,45.45
2018-02-20T07:08:46.097Z,48.58
2018-02-20T07:11:16.067Z,55.70
2018-02-20T07:13:46.438Z,49.55
2018-02-20T07:16:16.369Z,51.65
2018-02-20T07:18:46.368Z,48.22
2018-02-20T07:21:16.355Z,58.05
2018-02-20T07:23:46.517Z,52.70
2018-02-20T07:26:17.001Z,57.30
2018-02-20T07:28:46.898Z,55.08
2018-02-20T07:31:17.408Z,56.63
2018-02-20T07:33:47.151Z,53.13
2018-02-20T07:36:17.743Z,54.22
2018-02-20T07:38:47.721Z,55.15
2018-02-20T07:41:18.374Z,49.90
2018-02-20T07:43:48.233Z,59.00
2018-02-20T07:46:18.035Z,59.17
2018-02-20T07:48:47.867Z,58.63
2018-02-20T07:51:17.756Z,61.20
2018-02-20T07:53:48.991Z,59.67
2018-02-20T07:56:18.782Z,54.88
2018-02-20T07:58:48.589Z,50.35
2018-02-20T08:01:18.429Z,54.13
2018-02-20T08:03:49.143Z,51.92
2018-02-20T08:06:19.670Z,51.95
2018-02-20T08:08:50.402Z,52.62
2018-02-20T08:11:20.171Z,52.10
2018-02-20T08:13:49.898Z,52.67
2018-02-20T08:16:19.725Z,53.58
2018-02-20T08:18:49.465Z,45.20
2018-02-20T08:21:20.051Z,46.37
2018-02-20T08:23:50.573Z,42.80
2018-02-20T08:26:20.512Z,49.50
2018-02-20T08:28:50.981Z,50.30
2018-02-20T08:31:20.937Z,46.08
2018-02-20T08:33:50.633Z,48.92
2018-02-20T08:36:20.402Z,44.33
2018-02-20T08:38:50.094Z,45.60
2018-02-20T08:41:19.805Z,47.40
2018-02-20T08:43:49.565Z,49.88
2018-02-20T08:46:19.304Z,49.90
2018-02-20T08:48:49.082Z,45.67
2018-02-20T08:51:18.846Z,43.78
2018-02-20T08:53:48.829Z,51.45
2018-02-20T08:56:18.559Z,49.45
2018-02-20T08:58:48.278Z,42.97
2018-02-20T09:01:17.989Z,44.03
2018-02-20T09:03:47.890Z,45.90
2018-02-20T09:06:17.633Z,42.85
2018-02-20T09:08:47.382Z,47.45
2018-02-20T09:11:17.173Z,47.97
2018-02-20T09:13:46.891Z,44.60
2018-02-20T09:16:16.737Z,44.67
2018-02-20T09:18:46.448Z,47.60
2018-02-20T09:21:16.169Z,47.97
2018-02-20T09:23:46.039Z,43.10
2018-02-20T09:26:15.817Z,47.72
2018-02-20T09:28:45.574Z,48.38
2018-02-20T09:31:15.268Z,48.42
2018-02-20T09:33:45.008Z,47.83
2018-02-20T09:36:15.024Z,51.65
2018-02-20T09:38:44.720Z,51.47
2018-02-20T09:41:14.475Z,43.10
2018-02-20T09:43:44.283Z,48.90
2018-02-20T09:46:13.967Z,42.35
2018-02-20T09:48:43.724Z,38.78
2018-02-20T09:51:13.519Z,48.15
2018-02-20T09:53:43.313Z,45.92
2018-02-20T09:56:13.865Z,44.15
2018-02-20T09:58:43.667Z,44.72
2018-02-20T10:01:13.485Z,51.60
2018-02-20T10:03:43.308Z,44.10
2018-02-20T10:06:13.032Z,50.22
2018-02-20T10:08:42.908Z,49.17
2018-02-20T10:11:12.596Z,54.30
2018-02-20T10:13:43.218Z,48.85
2018-02-20T10:16:12.953Z,50.85
2018-02-20T10:18:42.690Z,53.15
2018-02-20T10:21:13.439Z,56.10
2018-02-20T10:23:44.233Z,51.55
2018-02-20T10:26:13.958Z,54.92
2018-02-20T10:28:43.656Z,55.78
2018-02-20T10:31:14.200Z,51.00
2018-02-20T10:33:43.932Z,46.55
2018-02-20T10:36:13.728Z,54.78
2018-02-20T10:38:43.609Z,45.92
2018-02-20T10:41:13.454Z,48.33
2018-02-20T10:43:43.991Z,47.72
2018-02-20T10:46:14.501Z,45.13
2018-02-20T10:48:44.453Z,45.92
2018-02-20T10:51:15.032Z,39.15
2018-02-20T10:53:44.857Z,41.97
2018-02-20T10:56:14.554Z,42.42
2018-02-20T10:58:45.162Z,36.90
2018-02-20T11:01:14.941Z,39.38
2018-02-20T11:03:44.794Z,43.10
2018-02-20T11:06:14.534Z,35.22
2018-02-20T11:08:44.351Z,34.40
2018-02-20T11:11:14.095Z,36.55
2018-02-20T11:13:44.592Z,34.97
2018-02-20T11:16:14.432Z,34.35
2018-02-20T11:18:44.229Z,33.60
2018-02-20T11:21:14.025Z,36.27
2018-02-20T11:23:44.624Z,38.07
2018-02-20T11:26:14.485Z,36.70
2018-02-20T11:28:45.025Z,40.13
2018-02-20T11:31:15.616Z,37.00
2018-02-20T11:33:46.176Z,41.22
2018-02-20T11:36:15.895Z,43.47
2018-02-20T11:38:45.607Z,41.20
2018-02-20T11:41:16.204Z,45.67
2018-02-20T11:43:45.906Z,36.17
2018-02-20T11:46:16.727Z,37.03
2018-02-20T11:48:46.432Z,45.50
2018-02-20T11:51:16.264Z,41.60
2018-02-20T11:53:46.016Z,36.53
2018-02-20T11:56:15.890Z,49.17
2018-02-20T11:58:45.760Z,39.87
2018-02-20T12:01:15.584Z,36.43
2018-02-20T12:03:45.477Z,38.77
2018-02-20T12:06:15.293Z,32.47
2018-02-20T12:08:45.789Z,39.50
2018-02-20T12:11:16.473Z,31.85
2018-02-20T12:13:46.290Z,36.23
2018-02-20T12:16:16.050Z,38.83
2018-02-20T12:18:45.803Z,34.27
2018-02-20T12:21:16.545Z,36.25
2018-02-20T12:23:47.081Z,36.10
2018-02-20T12:26:16.928Z,36.40
2018-02-20T12:28:46.822Z,33.88
2018-02-20T12:31:16.785Z,35.95
2018-02-20T12:33:46.545Z,36.20
2018-02-20T12:36:16.385Z,33.10
2018-02-20T12:38:46.128Z,32.33
2018-02-20T12:41:17.234Z,36.92
2018-02-20T12:43:47.046Z,40.95
2018-02-20T12:46:16.854Z,38.03
2018-02-20T12:48:46.585Z,33.97
2018-02-20T12:51:16.428Z,43.90
2018-02-20T12:53:47.139Z,36.73
2018-02-20T12:56:17.005Z,36.57
2018-02-20T12:58:46.895Z,36.07
2018-02-20T13:01:16.660Z,33.17
2018-02-20T13:03:46.504Z,29.60
2018-02-20T13:06:16.379Z,29.40
2018-02-20T13:08:46.113Z,27.37
2018-02-20T13:11:15.989Z,29.37
2018-02-20T13:13:46.479Z,31.23
2018-02-20T13:16:16.235Z,28.70
2018-02-20T13:18:48.360Z,21.57
2018-02-20T13:21:18.269Z,28.07
2018-02-20T13:23:48.004Z,22.63
2018-02-20T13:26:17.782Z,26.93
2018-02-20T13:28:47.607Z,27.93
2018-02-20T13:31:17.381Z,30.17
2018-02-20T13:33:47.199Z,30.70
2018-02-20T13:36:17.041Z,36.00
2018-02-20T13:38:46.922Z,33.40
2018-02-20T13:41:17.507Z,30.60
2018-02-20T13:43:47.316Z,34.33
2018-02-20T13:46:30.939Z,33.13
2018-02-20T13:49:00.757Z,32.70
2018-02-20T13:51:31.246Z,33.23
2018-02-20T13:54:01.005Z,32.47
2018-02-20T13:56:30.755Z,33.17
2018-02-20T13:59:00.561Z,29.33
2018-02-20T14:01:31.229Z,31.07
2018-02-20T14:04:01.044Z,33.13
2018-02-20T14:06:30.884Z,34.03
2018-02-20T14:09:00.647Z,34.00
2018-02-20T14:11:30.438Z,26.60
2018-02-20T14:14:00.338Z,31.33
2018-02-20T14:16:30.849Z,29.23
2018-02-20T14:19:00.625Z,26.50
2018-02-20T14:21:30.551Z,24.97
2018-02-20T14:24:00.374Z,28.03
2018-02-20T14:26:30.644Z,25.77
2018-02-20T14:29:00.538Z,30.57
2018-02-20T14:31:30.342Z,28.90
2018-02-20T14:34:00.256Z,26.37
2018-02-20T14:36:30.840Z,33.53
2018-02-20T14:39:00.769Z,35.77
2018-02-20T14:41:30.808Z,30.53
2018-02-20T14:44:00.662Z,29.97
2018-02-20T14:46:30.592Z,30.33
2018-02-20T14:49:01.125Z,32.13
2018-02-20T14:51:31.797Z,33.50
2018-02-20T14:54:01.612Z,31.80
2018-02-20T14:56:32.162Z,33.83
2018-02-20T14:59:01.974Z,35.07
2018-02-20T15:01:32.506Z,36.37
2018-02-20T15:04:03.236Z,33.97
2018-02-20T15:06:33.102Z,53.57
2018-02-20T15:09:02.894Z,52.77
2018-02-20T15:11:33.491Z,41.97
2018-02-20T15:14:03.235Z,35.87
2018-02-20T15:16:33.520Z,29.87
2018-02-20T15:19:03.320Z,29.87
2018-02-20T15:21:33.833Z,30.90
2018-02-20T15:24:03.816Z,28.17
2018-02-20T15:26:33.629Z,30.90
2018-02-20T15:29:03.525Z,32.43
2018-02-20T15:31:33.428Z,31.57
2018-02-20T15:34:03.288Z,34.97
2018-02-20T15:36:34.577Z,35.63
2018-02-20T15:39:04.535Z,37.63
2018-02-20T15:41:34.428Z,35.73
2018-02-20T15:44:04.147Z,34.30
2018-02-20T15:46:34.027Z,40.97
2018-02-20T15:49:03.845Z,35.93
2018-02-20T15:51:34.291Z,30.80
2018-02-20T15:54:04.324Z,39.67
2018-02-20T15:56:34.189Z,38.58
2018-02-20T15:59:04.020Z,35.03
2018-02-20T16:01:34.000Z,38.37
2018-02-20T16:04:04.422Z,34.30
2018-02-20T16:06:35.183Z,32.55
2018-02-20T16:09:05.328Z,34.37
2018-02-20T16:11:35.205Z,38.27
2018-02-20T16:14:05.055Z,35.20
2018-02-20T16:16:35.034Z,30.92
2018-02-20T16:19:04.824Z,32.80
2018-02-20T16:21:35.425Z,35.53
2018-02-20T16:24:05.636Z,30.92
2018-02-20T16:26:36.231Z,35.85
2018-02-20T16:29:06.098Z,35.65
2018-02-20T16:31:36.218Z,35.42
2018-02-20T16:34:06.141Z,33.72
2018-02-20T16:36:36.629Z,35.35
2018-02-20T16:39:07.021Z,37.35
2018-02-20T16:41:36.916Z,32.50
2018-02-20T16:44:07.452Z,33.53
2018-02-20T16:46:37.442Z,34.67
2018-02-20T16:49:07.231Z,32.10
2018-02-20T16:51:37.110Z,32.83
2018-02-20T16:54:07.115Z,34.25
2018-02-20T16:56:36.911Z,32.67
2018-02-20T16:59:06.679Z,37.03
2018-02-20T17:01:36.752Z,36.33
2018-02-20T17:04:07.357Z,39.95
2018-02-20T17:06:37.885Z,36.80
2018-02-20T17:09:07.707Z,37.53
2018-02-20T17:11:37.624Z,34.60
2018-02-20T17:14:07.489Z,34.85
2018-02-20T17:16:37.604Z,35.53
2018-02-20T17:19:07.439Z,43.33
2018-02-20T17:21:37.325Z,32.83
2018-02-20T17:24:07.401Z,38.03
2018-02-20T17:26:37.215Z,36.05
2018-02-20T17:29:07.056Z,34.22
2018-02-20T17:31:38.048Z,40.55
2018-02-20T17:34:07.918Z,35.97
2018-02-20T17:36:38.102Z,37.55
2018-02-20T17:39:08.060Z,41.35
2018-02-20T17:41:38.140Z,36.67
2018-02-20T17:44:08.010Z,37.05
2018-02-20T17:46:38.292Z,39.42
2018-02-20T17:49:08.871Z,40.42
2018-02-20T17:51:38.787Z,40.12
2018-02-20T17:54:08.826Z,37.25
2018-02-20T17:56:39.451Z,39.33
2018-02-20T17:59:09.430Z,42.22
2018-02-20T18:01:39.257Z,40.88
2018-02-20T18:04:09.114Z,37.25
2018-02-20T18:06:38.944Z,43.78
2018-02-20T18:09:08.913Z,41.37
2018-02-20T18:11:38.737Z,34.78
2018-02-20T18:14:08.751Z,36.85
2018-02-20T18:16:38.718Z,37.50
2018-02-20T18:19:08.546Z,39.78
2018-02-20T18:21:38.500Z,41.67
2018-02-20T18:24:08.413Z,40.80
2018-02-20T18:26:38.960Z,41.63
2018-02-20T18:29:09.682Z,41.40
2018-02-20T18:31:39.730Z,39.40
2018-02-20T18:34:10.433Z,38.83
2018-02-20T18:36:41.527Z,39.03
2018-02-20T18:39:11.455Z,37.13
2018-02-20T18:41:41.997Z,38.15
2018-02-20T18:44:12.609Z,41.30
2018-02-20T18:46:42.957Z,39.20
2018-02-20T18:49:12.749Z,43.17
2018-02-20T18:51:43.401Z,46.72
2018-02-20T18:54:13.748Z,42.83
2018-02-20T18:56:43.593Z,40.35
2018-02-20T18:59:14.690Z,43.47
2018-02-20T19:01:44.413Z,40.20
2018-02-20T19:04:14.664Z,41.85
2018-02-20T19:06:44.513Z,44.40
2018-02-20T19:09:14.548Z,49.13
2018-02-20T19:11:44.488Z,41.15
2018-02-20T19:14:14.410Z,40.70
2018-02-20T19:16:45.193Z,42.62
2018-02-20T19:19:15.075Z,42.40
2018-02-20T19:21:45.938Z,39.78
2018-02-20T19:24:15.754Z,43.60
2018-02-20T19:26:45.780Z,42.28
2018-02-20T19:29:16.585Z,42.08
2018-02-20T19:31:46.743Z,40.17
2018-02-20T19:34:17.339Z,46.67
2018-02-20T19:36:48.862Z,44.35
2018-02-20T19:39:19.396Z,44.75
2018-02-20T19:44:31.442Z,45.97
2018-02-20T19:47:02.392Z,47.00
2018-02-20T19:49:33.052Z,45.67
2018-02-20T19:52:03.101Z,44.70
2018-02-20T19:54:32.890Z,46.22
2018-02-20T19:57:02.714Z,45.35
2018-02-20T19:59:33.580Z,47.35
2018-02-20T20:02:03.770Z,45.75
2018-02-20T20:04:33.592Z,45.30
2018-02-20T20:07:04.909Z,48.80
2018-02-20T20:09:34.721Z,47.80
2018-02-20T20:12:04.924Z,45.90
2018-02-20T20:14:35.157Z,48.40
2018-02-20T20:17:05.170Z,43.92
2018-02-20T20:19:35.057Z,46.53
2018-02-20T20:22:04.957Z,47.58
2018-02-20T20:24:35.933Z,48.85
2018-02-20T20:27:06.450Z,46.28
2018-02-20T20:29:36.240Z,44.20
2018-02-20T20:32:06.131Z,47.62
2018-02-20T20:34:36.935Z,47.05
2018-02-20T20:37:09.446Z,49.25
2018-02-20T20:39:39.333Z,49.17
2018-02-20T20:42:09.309Z,48.45
2018-02-20T20:44:39.726Z,49.15
2018-02-20T20:47:09.504Z,51.88
2018-02-20T20:49:39.526Z,46.33
2018-02-20T20:52:11.028Z,55.47
2018-02-20T20:54:41.847Z,48.42
2018-02-20T20:57:13.343Z,49.33
2018-02-20T20:59:43.952Z,50.97
2018-02-20T21:02:13.795Z,50.33
2018-02-20T21:04:44.415Z,44.53
2018-02-20T21:07:14.168Z,48.08
2018-02-20T21:09:44.725Z,47.00
2018-02-20T21:12:14.517Z,46.00
2018-02-20T21:14:44.309Z,46.58
2018-02-20T21:17:14.098Z,49.88
2018-02-20T21:19:43.872Z,47.28
2018-02-20T21:22:13.677Z,49.90
2018-02-20T21:24:43.786Z,49.45
2018-02-20T21:27:13.642Z,48.33
2018-02-20T21:29:44.116Z,54.03
2018-02-20T21:32:14.653Z,50.85
2018-02-20T21:34:45.324Z,55.47
2018-02-20T21:37:15.120Z,50.47
2018-02-20T21:39:45.808Z,53.65
2018-02-20T21:42:15.793Z,48.58
2018-02-20T21:44:46.381Z,57.40
2018-02-20T21:47:16.400Z,49.95
2018-02-20T21:49:46.186Z,48.45
2018-02-20T21:52:16.769Z,52.05
2018-02-20T21:54:46.590Z,52.08
2018-02-20T21:57:17.052Z,57.78
2018-02-20T21:59:46.951Z,53.67
2018-02-20T22:02:16.847Z,56.20
2018-02-20T22:04:46.665Z,52.38
2018-02-20T22:07:17.443Z,54.58
2018-02-20T22:09:47.259Z,58.83
2018-02-20T22:12:17.159Z,54.03
2018-02-20T22:14:47.640Z,57.72
2018-02-20T22:17:17.441Z,62.17
2018-02-20T22:19:47.408Z,53.40
2018-02-20T22:22:17.312Z,55.88
2018-02-20T22:24:47.093Z,57.70
2018-02-20T22:27:17.922Z,57.85
2018-02-20T22:29:47.759Z,56.97
2018-02-20T22:32:17.580Z,63.45
2018-02-20T22:34:47.344Z,53.55
2018-02-20T22:37:17.423Z,55.80
2018-02-20T22:39:47.255Z,56.95
2018-02-20T22:42:17.230Z,57.20
2018-02-20T22:44:47.131Z,59.22
2018-02-20T22:47:17.753Z,55.03
2018-02-20T22:49:47.575Z,59.83
2018-02-20T22:52:17.734Z,60.38
2018-02-20T22:54:47.476Z,63.25
2018-02-20T22:57:18.224Z,60.10
2018-02-20T22:59:48.052Z,58.47
2018-02-20T23:02:17.902Z,61.17
2018-02-20T23:04:47.869Z,62.50
2018-02-20T23:07:17.797Z,58.50
2018-02-20T23:09:48.347Z,61.22
2018-02-20T23:12:18.076Z,63.00
2018-02-20T23:14:47.908Z,65.28
2018-02-20T23:17:17.692Z,58.58
2018-02-20T23:19:48.440Z,64.30
2018-02-20T23:22:19.011Z,59.67
2018-02-20T23:24:48.757Z,59.97
2018-02-20T23:27:18.494Z,61.47
2018-02-20T23:29:48.245Z,69.72
2018-02-20T23:32:18.055Z,62.60
2018-02-20T23:34:47.867Z,65.65
2018-02-20T23:37:17.578Z,65.28
2018-02-20T23:39:47.455Z,62.50
2018-02-20T23:42:17.938Z,63.42
2018-02-20T23:44:47.793Z,65.68
2018-02-20T23:47:17.542Z,68.90
2018-02-20T23:49:48.146Z,61.45
2018-02-20T23:52:17.877Z,70.50
2018-02-20T23:54:48.033Z,67.62
2018-02-20T23:57:18.541Z,65.68
2018-02-20T23:59:48.287Z,66.87
